Terminal Aerodrome Forecast
Issued by NWS

Home | Current Version | Previous Version | Graphics & Text | Print | Product List | Glossary On
Versions: 1 2 3 4 5 6 7 8 9 10 11 12 13 14 15 16 17
000
FTUS43 KICT 180400 AAA
TAFHUT
TAF AMD
KHUT 180438Z 1805/1824 34020G30KT P6SM -TSRA BKN060CB
     FM180600 34015KT P6SM SCT060
     FM181500 19010KT P6SM SCT250
     FM181900 22013KT P6SM SCT250=

USA.gov is the U.S. government's official web portal to all federal, state and local government web resources and services.